KTA weather

Karratha Airport
Karratha, Western Australia, Australia

Public forecast

Using degrees Celsius for public forecast. Weather courtesy of forecast.io.

METAR (pilot weather report)

Closest report is Barrow Island Airport, 77.3 nm (143.1 km) W. Retrieved 2018/06/23 13:00 UTC (12 minutes ago):

YBWX 231300Z AUTO 08009KT //// // ////// 21/14 Q1021

TAF (pilot weather forecast)

Closest forecast is Port Hedland International Airport, 106.1 nm (196.5 km) E. Retrieved 2018/06/23 12:36 UTC (36 minutes ago):

TAF YPPD 231105Z 2312/2412 13010KT CAVOK BECMG 2322/2400 12020G30KT CAVOK FM240400 11014KT CAVOK